createdAt,value
2018-12-02T00:00:26.642Z,88.74
2018-12-02T00:02:55.024Z,91.78
2018-12-02T00:05:23.415Z,91.68
2018-12-02T00:07:51.483Z,92.59
2018-12-02T00:10:20.114Z,84.72
2018-12-02T00:12:48.342Z,84.40
2018-12-02T00:15:17.350Z,84.93
2018-12-02T00:17:45.514Z,84.52
2018-12-02T00:20:14.357Z,84.89
2018-12-02T00:22:42.464Z,85.20
2018-12-02T00:25:12.351Z,85.92
2018-12-02T00:27:40.621Z,86.63
2018-12-02T00:30:14.555Z,88.38
2018-12-02T00:32:42.624Z,90.55
2018-12-02T00:35:11.864Z,92.51
2018-12-02T00:37:40.192Z,93.46
2018-12-02T00:40:14.954Z,91.60
2018-12-02T00:42:45.053Z,93.36
2018-12-02T00:45:15.424Z,93.78
2018-12-02T00:47:43.664Z,90.03
2018-12-02T00:50:15.085Z,88.62
2018-12-02T00:52:44.620Z,89.75
2018-12-02T00:55:14.680Z,91.03
2018-12-02T00:57:42.654Z,90.78
2018-12-02T01:00:11.976Z,91.39
2018-12-02T01:02:40.224Z,90.05
2018-12-02T01:05:10.576Z,89.70
2018-12-02T01:07:38.698Z,87.32
2018-12-02T01:10:09.956Z,91.95
2018-12-02T01:12:38.887Z,91.72
2018-12-02T01:15:09.037Z,89.48
2018-12-02T01:17:37.120Z,87.06
2018-12-02T01:20:22.193Z,90.00
2018-12-02T01:22:50.415Z,87.66
2018-12-02T01:25:18.481Z,86.73
2018-12-02T01:27:46.803Z,90.07
2018-12-02T01:30:15.853Z,87.92
2018-12-02T01:32:43.942Z,90.89
2018-12-02T01:35:12.311Z,93.59
2018-12-02T01:37:40.637Z,93.03
2018-12-02T01:40:16.440Z,95.97
2018-12-02T01:42:44.598Z,95.07
2018-12-02T01:45:17.471Z,93.19
2018-12-02T01:47:45.516Z,90.51
2018-12-02T01:50:18.227Z,91.01
2018-12-02T01:52:49.375Z,93.59
2018-12-02T01:55:17.509Z,93.75
2018-12-02T01:57:45.791Z,93.13
2018-12-02T02:00:17.691Z,92.50
2018-12-02T02:02:46.660Z,86.11
2018-12-02T02:05:15.476Z,86.68
2018-12-02T02:07:43.512Z,85.53
2018-12-02T02:10:16.380Z,84.97
2018-12-02T02:12:45.075Z,85.17
2018-12-02T02:15:14.127Z,88.97
2018-12-02T02:17:42.156Z,86.89
2018-12-02T02:20:21.354Z,89.92
2018-12-02T02:22:49.375Z,87.18
2018-12-02T02:25:18.273Z,85.67
2018-12-02T02:27:49.548Z,85.81
2018-12-02T02:30:22.225Z,86.50
2018-12-02T02:32:50.476Z,86.34
2018-12-02T02:35:20.116Z,87.41
2018-12-02T02:37:49.418Z,88.10
2018-12-02T02:40:21.314Z,89.99
2018-12-02T02:42:49.753Z,92.68
2018-12-02T02:45:17.855Z,91.44
2018-12-02T02:47:45.947Z,91.30
2018-12-02T02:50:24.342Z,91.24
2018-12-02T02:53:01.928Z,90.25
2018-12-02T02:55:30.170Z,89.32
2018-12-02T02:57:58.408Z,88.74
2018-12-02T03:00:27.446Z,89.87
2018-12-02T03:02:56.628Z,89.55
2018-12-02T03:05:24.833Z,90.08
2018-12-02T03:07:53.825Z,92.90
2018-12-02T03:10:22.135Z,94.02
2018-12-02T03:12:52.185Z,93.67
2018-12-02T03:15:21.652Z,93.16
2018-12-02T03:17:50.604Z,92.79
2018-12-02T03:20:19.638Z,92.14
2018-12-02T03:22:53.242Z,92.25
2018-12-02T03:25:22.238Z,91.53
2018-12-02T03:27:50.901Z,90.87
2018-12-02T03:30:20.837Z,90.18
2018-12-02T03:32:49.373Z,92.23
2018-12-02T03:35:19.345Z,94.22
2018-12-02T03:37:47.399Z,93.78
2018-12-02T03:40:18.260Z,94.43
2018-12-02T03:42:46.251Z,93.92
2018-12-02T03:45:15.366Z,94.65
2018-12-02T03:47:43.427Z,95.07
2018-12-02T03:50:17.552Z,95.40
2018-12-02T03:52:42.215Z,92.35
2018-12-02T03:55:10.431Z,92.38
2018-12-02T03:57:38.551Z,90.97
2018-12-02T04:00:16.029Z,85.04
2018-12-02T04:02:44.192Z,83.48
2018-12-02T04:05:15.484Z,83.74
2018-12-02T04:07:43.714Z,84.64
2018-12-02T04:10:13.427Z,85.25
2018-12-02T04:12:41.581Z,90.08
2018-12-02T04:15:15.315Z,91.48
2018-12-02T04:17:43.715Z,91.42
2018-12-02T04:20:12.633Z,91.49
2018-12-02T04:22:40.754Z,90.85
2018-12-02T04:25:12.855Z,92.40
2018-12-02T04:27:41.190Z,93.07
2018-12-02T04:30:10.731Z,92.06
2018-12-02T04:32:38.869Z,92.46
2018-12-02T04:35:08.477Z,89.04
2018-12-02T04:37:36.525Z,86.79
2018-12-02T04:40:06.805Z,88.44
2018-12-02T04:42:34.927Z,91.38
2018-12-02T04:45:03.028Z,91.28
2018-12-02T04:47:31.088Z,92.90
2018-12-02T04:49:59.270Z,92.47
2018-12-02T04:52:27.397Z,92.26
2018-12-02T04:54:55.439Z,92.40
2018-12-02T04:57:23.485Z,84.95
2018-12-02T04:59:51.549Z,83.63
2018-12-02T05:02:19.587Z,84.63
2018-12-02T05:04:47.666Z,85.67
2018-12-02T05:07:16.481Z,87.05
2018-12-02T05:09:44.544Z,88.98
2018-12-02T05:12:12.741Z,93.10
2018-12-02T05:14:41.149Z,91.46
2018-12-02T05:17:10.125Z,91.45
2018-12-02T05:19:38.217Z,93.85
2018-12-02T05:22:06.540Z,95.79
2018-12-02T05:24:35.616Z,92.52
2018-12-02T05:27:03.929Z,92.12
2018-12-02T05:29:34.268Z,92.53
2018-12-02T05:32:02.480Z,92.20
2018-12-02T05:34:30.705Z,91.96
2018-12-02T05:37:00.291Z,87.65
2018-12-02T05:39:28.338Z,89.21
2018-12-02T05:42:02.142Z,87.76
2018-12-02T05:44:30.391Z,89.71
2018-12-02T05:46:59.160Z,89.05
2018-12-02T05:49:27.184Z,89.09
2018-12-02T05:51:55.450Z,89.24
2018-12-02T05:54:23.525Z,87.21
2018-12-02T05:56:51.583Z,88.30
2018-12-02T05:59:19.970Z,92.72
2018-12-02T06:01:48.160Z,95.37
2018-12-02T06:04:16.307Z,97.28
2018-12-02T06:06:44.647Z,98.76
2018-12-02T06:09:13.206Z,95.26
2018-12-02T06:11:43.764Z,94.10
2018-12-02T06:14:09.517Z,91.71
2018-12-02T06:16:37.641Z,88.83
2018-12-02T06:19:05.793Z,93.11
2018-12-02T06:21:34.455Z,93.69
2018-12-02T06:24:05.877Z,93.57
2018-12-02T06:26:34.097Z,93.81
2018-12-02T06:29:02.342Z,93.84
2018-12-02T06:31:30.668Z,92.98
2018-12-02T06:33:59.786Z,94.63
2018-12-02T06:36:28.987Z,95.51
2018-12-02T06:38:58.463Z,95.66
2018-12-02T06:41:28.102Z,96.06
2018-12-02T06:43:56.288Z,96.27
2018-12-02T06:46:24.598Z,96.12
2018-12-02T06:48:54.947Z,95.71
2018-12-02T06:51:23.393Z,95.29
2018-12-02T06:53:51.767Z,96.06
2018-12-02T06:56:22.138Z,95.37
2018-12-02T06:59:55.242Z,95.69
2018-12-02T07:02:46.452Z,96.03
2018-12-02T07:05:21.716Z,95.53
2018-12-02T07:07:51.593Z,91.57
2018-12-02T07:10:20.010Z,90.93
2018-12-02T07:12:48.048Z,90.78
2018-12-02T07:15:17.502Z,90.69
2018-12-02T07:17:45.696Z,89.96
2018-12-02T07:20:15.134Z,88.56
2018-12-02T07:22:43.981Z,84.70
2018-12-02T07:25:13.677Z,82.96
2018-12-02T07:27:41.740Z,84.87
2018-12-02T07:30:11.168Z,81.98
2018-12-02T07:32:50.121Z,83.45
2018-12-02T07:35:19.495Z,83.31
2018-12-02T07:37:49.996Z,84.13
2018-12-02T07:40:34.089Z,86.41
2018-12-02T07:43:03.133Z,88.88
2018-12-02T07:45:31.797Z,90.00
2018-12-02T07:48:00.876Z,89.74
2018-12-02T07:50:29.093Z,88.84
2018-12-02T07:52:57.150Z,89.57
2018-12-02T07:55:25.285Z,88.53
2018-12-02T07:57:53.409Z,84.79
2018-12-02T08:00:21.509Z,82.34
2018-12-02T08:02:49.613Z,82.89
2018-12-02T08:05:18.048Z,83.08
2018-12-02T08:07:48.595Z,85.52
2018-12-02T08:10:19.009Z,80.41
2018-12-02T08:12:47.106Z,79.94
2018-12-02T08:15:18.150Z,80.37
2018-12-02T08:17:46.338Z,82.35
2018-12-02T08:20:18.453Z,81.89
2018-12-02T08:22:51.283Z,81.53
2018-12-02T08:25:17.594Z,82.58
2018-12-02T08:27:45.685Z,79.95
2018-12-02T08:30:18.348Z,78.48
2018-12-02T08:32:47.159Z,79.53
2018-12-02T08:35:16.253Z,80.38
2018-12-02T08:37:45.858Z,78.87
2018-12-02T08:40:14.195Z,79.67
2018-12-02T08:42:42.908Z,80.70
2018-12-02T08:45:14.127Z,78.36
2018-12-02T08:47:42.956Z,80.12
2018-12-02T08:50:16.315Z,78.60
2018-12-02T08:52:46.936Z,79.26
2018-12-02T08:55:17.993Z,77.09
2018-12-02T08:57:47.403Z,78.88
2018-12-02T09:00:20.753Z,78.72
2018-12-02T09:02:51.787Z,76.60
2018-12-02T09:05:19.936Z,76.32
2018-12-02T09:07:51.209Z,76.99
2018-12-02T09:10:23.177Z,75.03
2018-12-02T09:12:54.081Z,71.03
2018-12-02T09:15:22.558Z,73.46
2018-12-02T09:17:51.817Z,72.80
2018-12-02T09:20:28.111Z,72.63
2018-12-02T09:22:56.267Z,71.07
2018-12-02T09:25:24.967Z,72.76
2018-12-02T09:27:53.870Z,75.14
2018-12-02T09:30:23.400Z,72.24
2018-12-02T09:32:51.819Z,73.65
2018-12-02T09:35:21.731Z,72.71
2018-12-02T09:37:50.221Z,75.56
2018-12-02T09:40:18.683Z,71.25
2018-12-02T09:42:47.805Z,72.28
2018-12-02T09:45:21.169Z,71.24
2018-12-02T09:47:50.096Z,73.34
2018-12-02T09:50:18.537Z,72.70
2018-12-02T09:52:46.635Z,73.21
2018-12-02T09:55:24.628Z,72.96
2018-12-02T09:57:55.347Z,74.69
2018-12-02T10:00:23.575Z,73.27
2018-12-02T10:02:53.575Z,74.09
2018-12-02T10:05:21.737Z,71.89
2018-12-02T10:07:50.183Z,75.46
2018-12-02T10:10:22.793Z,73.91
2018-12-02T10:12:58.019Z,76.52
2018-12-02T10:15:30.542Z,71.73
2018-12-02T10:17:58.959Z,73.13
2018-12-02T10:20:28.259Z,74.42
2018-12-02T10:22:56.783Z,73.63
2018-12-02T10:25:25.389Z,70.93
2018-12-02T10:27:55.844Z,71.53
2018-12-02T10:30:24.872Z,70.42
2018-12-02T10:32:54.104Z,72.59
2018-12-02T10:35:22.444Z,72.54
2018-12-02T10:37:51.706Z,70.21
2018-12-02T10:40:22.816Z,71.45
2018-12-02T10:42:51.360Z,72.54
2018-12-02T10:45:23.768Z,69.66
2018-12-02T10:47:54.101Z,70.56
2018-12-02T10:50:35.379Z,71.77
2018-12-02T10:53:05.981Z,66.42
2018-12-02T10:55:44.322Z,67.81
2018-12-02T10:58:18.156Z,70.12
2018-12-02T11:00:58.670Z,70.74
2018-12-02T11:03:26.930Z,68.98
2018-12-02T11:05:54.991Z,67.51
2018-12-02T11:08:23.380Z,70.90
2018-12-02T11:10:51.736Z,68.38
2018-12-02T11:13:19.864Z,71.44
2018-12-02T11:15:48.184Z,69.49
2018-12-02T11:18:17.417Z,68.00
2018-12-02T11:20:45.675Z,68.73
2018-12-02T11:23:13.839Z,71.81
2018-12-02T11:25:42.616Z,69.69
2018-12-02T11:28:11.086Z,71.48
2018-12-02T11:30:40.868Z,70.17
2018-12-02T11:33:09.264Z,70.25
2018-12-02T11:35:37.653Z,71.59
2018-12-02T11:38:10.388Z,73.29
2018-12-02T11:40:40.938Z,70.36
2018-12-02T11:43:11.402Z,70.42
2018-12-02T11:45:41.896Z,72.66
2018-12-02T11:48:10.278Z,70.15
2018-12-02T11:50:39.226Z,70.04
2018-12-02T11:53:08.842Z,70.52
2018-12-02T11:55:37.200Z,71.10
2018-12-02T11:58:07.575Z,71.07
2018-12-02T12:00:39.368Z,71.88
2018-12-02T12:03:07.892Z,70.47
2018-12-02T12:05:36.992Z,70.25
2018-12-02T12:08:06.041Z,72.59
2018-12-02T12:10:34.126Z,72.12
2018-12-02T12:13:02.282Z,71.36
2018-12-02T12:15:31.118Z,72.92
2018-12-02T12:17:59.793Z,69.21
2018-12-02T12:20:31.225Z,67.58
2018-12-02T12:23:00.310Z,67.54
2018-12-02T12:25:29.891Z,68.20
2018-12-02T12:27:59.417Z,69.58
2018-12-02T12:30:28.862Z,68.88
2018-12-02T12:32:58.826Z,69.87
2018-12-02T12:35:27.719Z,69.55
2018-12-02T12:37:59.185Z,70.02
2018-12-02T12:40:31.937Z,67.89
2018-12-02T12:43:10.970Z,68.27
2018-12-02T12:45:41.772Z,68.71
2018-12-02T12:48:11.738Z,68.92
2018-12-02T12:50:40.941Z,68.41
2018-12-02T12:53:09.133Z,68.77
2018-12-02T12:55:37.280Z,69.33
2018-12-02T12:58:06.484Z,68.91
2018-12-02T13:00:35.583Z,69.52
2018-12-02T13:03:03.725Z,71.87
2018-12-02T13:05:32.017Z,69.08
2018-12-02T13:08:01.117Z,68.01
2018-12-02T13:10:29.302Z,70.08
2018-12-02T13:12:57.511Z,67.70
2018-12-02T13:15:26.006Z,68.11
2018-12-02T13:17:56.407Z,68.64
2018-12-02T13:20:28.036Z,68.45
2018-12-02T13:22:58.700Z,69.29
2018-12-02T13:25:27.266Z,68.94
2018-12-02T13:27:55.248Z,69.28
2018-12-02T13:30:24.230Z,69.92
2018-12-02T13:32:53.405Z,69.66
2018-12-02T13:35:21.683Z,69.90
2018-12-02T13:37:49.956Z,69.96
2018-12-02T13:40:19.492Z,70.32
2018-12-02T13:42:50.934Z,69.46
2018-12-02T13:45:20.426Z,69.29
2018-12-02T13:47:48.508Z,67.66
2018-12-02T13:50:21.395Z,64.81
2018-12-02T13:52:54.192Z,63.00
2018-12-02T13:55:24.534Z,60.95
2018-12-02T13:57:54.443Z,61.48
2018-12-02T14:00:24.200Z,63.87
2018-12-02T14:03:08.223Z,66.09
2018-12-02T14:05:38.312Z,67.73
2018-12-02T14:08:06.556Z,68.69
2018-12-02T14:10:35.476Z,69.58
2018-12-02T14:13:11.908Z,70.43
2018-12-02T14:15:50.326Z,70.78
2018-12-02T14:18:23.784Z,71.25
2018-12-02T14:20:52.598Z,71.72
2018-12-02T14:23:20.807Z,72.03
2018-12-02T14:25:49.112Z,72.49
2018-12-02T14:28:20.626Z,72.55
2018-12-02T14:30:50.308Z,72.72
2018-12-02T14:33:21.058Z,73.24
2018-12-02T14:35:49.361Z,72.75
2018-12-02T14:38:17.510Z,73.58
2018-12-02T14:40:47.817Z,73.08
2018-12-02T14:43:15.964Z,73.44
2018-12-02T14:45:44.956Z,74.14
2018-12-02T14:48:13.010Z,74.72
2018-12-02T14:50:41.138Z,74.07
2018-12-02T14:53:11.349Z,74.65
2018-12-02T14:55:40.578Z,73.90
2018-12-02T14:58:09.090Z,73.89
2018-12-02T15:00:38.067Z,74.36
2018-12-02T15:03:07.263Z,73.84
2018-12-02T15:05:36.334Z,74.42
2018-12-02T15:08:04.485Z,75.00
2018-12-02T15:10:32.763Z,74.84
2018-12-02T15:13:00.737Z,75.43
2018-12-02T15:15:28.733Z,75.59
2018-12-02T15:17:56.798Z,76.60
2018-12-02T15:20:25.140Z,77.01
2018-12-02T15:22:53.453Z,78.94
2018-12-02T15:25:21.701Z,77.13
2018-12-02T15:27:49.818Z,76.96
2018-12-02T15:30:18.482Z,76.22
2018-12-02T15:32:48.108Z,76.33
2018-12-02T15:35:17.560Z,77.31
2018-12-02T15:38:17.461Z,77.00
2018-12-02T15:40:45.763Z,76.97
2018-12-02T15:43:15.684Z,77.33
2018-12-02T15:45:45.116Z,77.84
2018-12-02T15:48:14.125Z,77.99
2018-12-02T15:50:50.177Z,78.34
2018-12-02T15:53:15.838Z,78.77
2018-12-02T15:55:44.103Z,78.67
2018-12-02T15:58:14.022Z,78.71
2018-12-02T16:00:48.412Z,78.49
2018-12-02T16:03:17.225Z,79.22
2018-12-02T16:05:45.944Z,78.74
2018-12-02T16:08:16.223Z,78.87
2018-12-02T16:10:45.163Z,79.05
2018-12-02T16:13:13.381Z,79.73
2018-12-02T16:15:42.639Z,79.47
2018-12-02T16:18:12.183Z,79.03
2018-12-02T16:20:58.903Z,79.02
2018-12-02T16:23:27.896Z,79.20
2018-12-02T16:25:56.038Z,79.64
2018-12-02T16:28:25.248Z,80.07
2018-12-02T16:31:00.787Z,80.26
2018-12-02T16:33:35.061Z,80.75
2018-12-02T16:36:04.980Z,81.70
2018-12-02T16:38:33.378Z,82.67
2018-12-02T16:41:01.612Z,84.53
2018-12-02T16:43:36.714Z,85.61
2018-12-02T16:46:07.161Z,85.90
2018-12-02T16:48:36.109Z,86.82
2018-12-02T16:51:07.386Z,87.02
2018-12-02T16:53:45.186Z,87.44
2018-12-02T16:56:16.913Z,88.34
2018-12-02T16:58:50.797Z,90.34
2018-12-02T17:01:23.356Z,90.64
2018-12-02T17:03:55.722Z,90.86
2018-12-02T17:06:28.239Z,91.49
2018-12-02T17:08:57.499Z,91.01
2018-12-02T17:11:25.819Z,91.15
2018-12-02T17:13:55.008Z,91.81
2018-12-02T17:16:23.863Z,92.47
2018-12-02T17:18:57.907Z,92.48
2018-12-02T17:21:28.657Z,92.04
2018-12-02T17:23:58.804Z,91.59
2018-12-02T17:26:29.261Z,93.05
2018-12-02T17:29:00.322Z,92.42
2018-12-02T17:34:44.467Z,91.89
2018-12-02T17:37:16.092Z,89.90
2018-12-02T17:39:50.102Z,91.68
2018-12-02T17:42:20.656Z,89.38
2018-12-02T17:44:53.453Z,89.50
2018-12-02T17:47:21.729Z,86.86
2018-12-02T17:49:50.065Z,87.43
2018-12-02T17:52:18.565Z,86.75
2018-12-02T17:54:50.199Z,87.95
2018-12-02T17:57:23.380Z,87.64
2018-12-02T17:59:51.716Z,85.51
2018-12-02T18:02:23.356Z,85.81
2018-12-02T18:04:55.147Z,86.20
2018-12-02T18:07:24.317Z,85.05
2018-12-02T18:09:55.224Z,83.56
2018-12-02T18:12:27.016Z,84.31
2018-12-02T18:14:55.188Z,83.69
2018-12-02T18:17:25.205Z,83.54
2018-12-02T18:19:53.710Z,84.13
2018-12-02T18:22:22.026Z,83.85
2018-12-02T18:24:50.795Z,83.26
2018-12-02T18:27:19.072Z,83.93
2018-12-02T18:29:47.273Z,84.62
2018-12-02T18:32:15.908Z,85.68
2018-12-02T18:34:45.528Z,86.36
2018-12-02T18:37:14.581Z,86.49
2018-12-02T18:39:44.276Z,86.95
2018-12-02T18:42:13.892Z,87.18
2018-12-02T18:44:43.476Z,87.34
2018-12-02T18:47:11.102Z,87.65
2018-12-02T18:49:39.589Z,88.43
2018-12-02T18:52:08.836Z,88.60
2018-12-02T18:54:37.489Z,88.56
2018-12-02T18:57:06.662Z,88.44
2018-12-02T18:59:36.220Z,88.82
2018-12-02T19:02:05.041Z,89.10
2018-12-02T19:04:33.160Z,89.42
2018-12-02T19:07:01.505Z,88.30
2018-12-02T19:09:29.609Z,88.01
2018-12-02T19:11:58.817Z,89.55
2018-12-02T19:14:27.344Z,91.46
2018-12-02T19:16:56.202Z,92.61
2018-12-02T19:19:24.952Z,92.83
2018-12-02T19:21:54.460Z,93.07
2018-12-02T19:24:26.958Z,92.67
2018-12-02T19:26:55.301Z,92.45
2018-12-02T19:29:25.083Z,93.30
2018-12-02T19:31:53.537Z,92.50
2018-12-02T19:34:22.241Z,94.34
2018-12-02T19:36:52.778Z,94.58
2018-12-02T19:39:20.816Z,94.19
2018-12-02T19:41:48.851Z,93.48
2018-12-02T19:44:18.117Z,93.55
2018-12-02T19:46:47.340Z,91.92
2018-12-02T19:49:16.617Z,89.49
2018-12-02T19:51:45.069Z,89.72
2018-12-02T19:54:13.605Z,87.56
2018-12-02T19:56:41.882Z,86.87
2018-12-02T19:59:10.251Z,87.28
2018-12-02T20:01:38.623Z,86.36
2018-12-02T20:04:06.709Z,85.88
2018-12-02T20:06:35.351Z,86.66
2018-12-02T20:09:05.194Z,85.17
2018-12-02T20:11:34.011Z,85.67
2018-12-02T20:14:02.791Z,87.09
2018-12-02T20:16:31.141Z,85.94
2018-12-02T20:18:59.567Z,85.31
2018-12-02T20:21:30.712Z,85.50
2018-12-02T20:24:04.310Z,85.60
2018-12-02T20:26:32.492Z,86.56
2018-12-02T20:29:00.538Z,88.02
2018-12-02T20:31:30.106Z,86.90
2018-12-02T20:33:58.117Z,86.50
2018-12-02T20:36:26.744Z,86.52
2018-12-02T20:38:54.994Z,87.18
2018-12-02T20:41:23.010Z,87.63
2018-12-02T20:43:50.986Z,88.38
2018-12-02T20:46:19.006Z,88.58
2018-12-02T20:48:47.173Z,88.86
2018-12-02T20:51:15.129Z,89.62
2018-12-02T20:53:43.249Z,90.80
2018-12-02T20:56:11.362Z,91.92
2018-12-02T20:58:39.431Z,93.60
2018-12-02T21:01:07.698Z,93.48
2018-12-02T21:03:39.678Z,94.49
2018-12-02T21:06:13.942Z,96.24
2018-12-02T21:08:42.073Z,96.72
2018-12-02T21:11:10.285Z,96.90
2018-12-02T21:13:38.716Z,97.07
2018-12-02T21:16:07.052Z,96.65
2018-12-02T21:18:35.211Z,95.40
2018-12-02T21:21:03.357Z,92.93
2018-12-02T21:23:31.500Z,91.35
2018-12-02T21:25:59.808Z,91.07
2018-12-02T21:28:28.083Z,90.78
2018-12-02T21:30:56.137Z,89.36
2018-12-02T21:33:24.196Z,88.54
2018-12-02T21:35:52.382Z,89.91
2018-12-02T21:38:20.576Z,88.66
2018-12-02T21:40:48.662Z,87.80
2018-12-02T21:43:16.801Z,89.01
2018-12-02T21:45:45.188Z,90.88
2018-12-02T21:48:18.185Z,89.19
2018-12-02T21:50:49.337Z,91.68
2018-12-02T21:53:17.659Z,89.62
2018-12-02T21:55:46.338Z,88.95
2018-12-02T21:58:14.441Z,88.80
2018-12-02T22:00:45.201Z,87.89
2018-12-02T22:03:14.112Z,88.78
2018-12-02T22:05:42.390Z,88.78
2018-12-02T22:08:10.336Z,91.19
2018-12-02T22:10:38.540Z,90.36
2018-12-02T22:13:06.604Z,91.79
2018-12-02T22:15:35.813Z,93.41
2018-12-02T22:18:04.370Z,92.04
2018-12-02T22:20:32.459Z,91.10
2018-12-02T22:23:00.583Z,90.94
2018-12-02T22:25:28.684Z,92.35
2018-12-02T22:27:58.080Z,91.10
2018-12-02T22:30:26.384Z,88.80
2018-12-02T22:32:56.960Z,87.90
2018-12-02T22:35:26.944Z,88.48
2018-12-02T22:37:55.204Z,88.99
2018-12-02T22:40:24.310Z,88.32
2018-12-02T22:42:53.215Z,88.16
2018-12-02T22:45:26.318Z,88.38
2018-12-02T22:47:54.458Z,88.95
2018-12-02T22:50:23.433Z,89.57
2018-12-02T22:52:52.479Z,89.65
2018-12-02T22:55:20.596Z,90.75
2018-12-02T22:57:48.832Z,89.68
2018-12-02T23:02:26.213Z,89.84
2018-12-02T23:04:54.577Z,90.82
2018-12-02T23:07:22.720Z,90.73
2018-12-02T23:09:50.947Z,90.87
2018-12-02T23:12:19.041Z,91.60
2018-12-02T23:14:47.093Z,91.99
2018-12-02T23:17:20.462Z,92.42
2018-12-02T23:19:48.698Z,95.06
2018-12-02T23:22:17.090Z,96.20
2018-12-02T23:24:45.177Z,92.46
2018-12-02T23:27:13.208Z,91.57
2018-12-02T23:29:41.293Z,91.34
2018-12-02T23:32:09.604Z,90.46
2018-12-02T23:34:37.783Z,90.40
2018-12-02T23:37:05.867Z,91.81
2018-12-02T23:39:34.203Z,92.29
2018-12-02T23:42:02.281Z,91.10
2018-12-02T23:44:30.228Z,90.24
2018-12-02T23:46:58.963Z,90.64
2018-12-02T23:49:27.311Z,90.50
2018-12-02T23:51:55.313Z,91.18
2018-12-02T23:54:23.361Z,91.50
2018-12-02T23:56:51.469Z,91.69
2018-12-02T23:59:19.439Z,92.17
